Time;durP1;ratioP1;P1;durP2;ratioP2;P2;SDS_P1;SDS_P2;PMS_P1;PMS_P2;Temp;Humidity;BMP_temperature;BMP_pressure;BME280_temperature;BME280_humidity;BME280_pressure;Samples;Min_cycle;Max_cycle;Signal;HPM_P1;HPM_P2
2022/03/16 00:00:41;;;;;;;78.20;46.20;;;;;;;-0.93;54.31;98367.09;110134;1247;68765;-65
2022/03/16 00:03:11;;;;;;;75.00;44.60;;;;;;;-1.02;54.98;98360.69;110315;1244;69586;-65
2022/03/16 00:05:41;;;;;;;78.30;45.90;;;;;;;-1.05;57.14;98358.15;110251;1245;59673;-67
2022/03/16 00:08:12;;;;;;;68.60;38.30;;;;;;;-1.04;56.95;98357.11;110180;1247;59694;-65
2022/03/16 00:10:41;;;;;;;;;;;;;;;-1.05;57.45;98348.06;110241;1245;70812;-64
2022/03/16 00:13:11;;;;;;;62.20;36.20;;;;;;;-1.04;55.17;98341.38;110074;1246;68019;-65
2022/03/16 00:15:42;;;;;;;51.90;29.80;;;;;;;-1.02;54.17;98333.83;110070;1247;68597;-65
2022/03/16 00:18:13;;;;;;;53.10;33.70;;;;;;;-0.98;56.04;98327.96;110115;1247;59734;-65
2022/03/16 00:20:42;;;;;;;;;;;;;;;-0.94;54.55;98326.36;110339;1244;59627;-68
2022/03/16 00:23:13;;;;;;;48.00;28.90;;;;;;;-0.91;53.20;98316.57;110213;1244;70590;-60
2022/03/16 00:25:44;;;;;;;37.00;20.20;;;;;;;-0.86;52.86;98308.47;110131;1247;68379;-62
2022/03/16 00:28:14;;;;;;;36.90;21.50;;;;;;;-0.81;51.53;98302.41;110289;1244;69230;-65
2022/03/16 00:30:45;;;;;;;43.00;26.00;;;;;;;-0.76;51.66;98292.08;110132;1245;59664;-67
2022/03/16 00:33:18;;;;;;;43.00;26.90;;;;;;;-0.72;51.23;98282.27;110127;1245;59776;-64
2022/03/16 00:35:48;;;;;;;53.10;31.00;;;;;;;-0.68;51.40;98278.62;110476;1244;71370;-63
2022/03/16 00:38:18;;;;;;;55.50;31.40;;;;;;;-0.66;52.18;98275.16;110241;1245;68990;-62
2022/03/16 00:40:48;;;;;;;59.50;36.60;;;;;;;-0.67;52.63;98276.89;110071;1245;69360;-61
2022/03/16 00:43:18;;;;;;;64.60;39.70;;;;;;;-0.69;54.27;98283.60;110033;1247;59702;-62
2022/03/16 00:45:48;;;;;;;;;;;;;;;-0.69;54.69;98281.72;110193;1246;59614;-62
2022/03/16 00:48:19;;;;;;;49.20;29.60;;;;;;;-0.68;57.01;98283.92;110271;1244;71578;-62
2022/03/16 00:50:50;;;;;;;45.70;29.20;;;;;;;-0.64;53.25;98273.26;110127;1244;68795;-61
2022/03/16 00:53:20;;;;;;;48.50;31.10;;;;;;;-0.58;52.30;98260.83;110217;1244;68648;-64
2022/03/16 00:55:50;;;;;;;42.60;26.70;;;;;;;-0.56;52.19;98254.80;110169;1245;59739;-60
2022/03/16 00:58:20;;;;;;;;;;;;;;;-0.56;52.53;98253.43;110288;1245;59664;-65
2022/03/16 01:00:51;;;;;;;;;;;;;;;-0.54;54.74;98249.84;109867;1248;70733;-68
2022/03/16 01:03:21;;;;;;;45.40;26.70;;;;;;;-0.55;54.74;98244.01;110381;1245;67900;-63
2022/03/16 01:05:51;;;;;;;;;;;;;;;-0.54;52.32;98235.95;110431;1244;69420;-66
2022/03/16 01:08:23;;;;;;;37.90;22.10;;;;;;;-0.53;51.51;98237.11;110110;1244;59666;-66
2022/03/16 01:10:53;;;;;;;40.60;22.00;;;;;;;-0.49;50.96;98230.23;110340;1244;59741;-66
2022/03/16 01:13:23;;;;;;;;;;;;;;;-0.44;53.38;98224.16;109857;1250;70662;-64
2022/03/16 01:15:54;;;;;;;38.40;23.10;;;;;;;-0.42;55.07;98220.70;110124;1247;68878;-65
2022/03/16 01:18:28;;;;;;;30.50;19.90;;;;;;;-0.43;52.14;98213.00;110104;1247;68698;-65
2022/03/16 01:20:57;;;;;;;41.90;25.50;;;;;;;-0.42;51.72;98211.10;110362;1244;59685;-65
2022/03/16 01:23:29;;;;;;;38.20;25.30;;;;;;;-0.42;52.60;98211.78;110395;1244;59691;-66
2022/03/16 01:26:00;;;;;;;42.80;26.30;;;;;;;-0.40;53.80;98211.27;110140;1247;70748;-65
2022/03/16 01:28:31;;;;;;;47.40;27.70;;;;;;;-0.40;54.11;98213.46;110335;1245;68071;-67
2022/03/16 01:31:02;;;;;;;42.60;25.40;;;;;;;-0.40;51.66;98208.00;110160;1244;68655;-63
2022/03/16 01:33:35;;;;;;;42.00;25.80;;;;;;;-0.44;51.50;98205.66;110243;1244;59684;-63
2022/03/16 01:36:06;;;;;;;55.20;31.70;;;;;;;-0.48;51.83;98198.52;110147;1247;59680;-60
2022/03/16 01:38:37;;;;;;;42.90;25.40;;;;;;;-0.53;52.88;98186.44;110134;1244;70653;-59
2022/03/16 01:41:07;;;;;;;50.10;30.30;;;;;;;-0.58;52.71;98172.66;110056;1248;67768;-60
2022/03/16 01:43:37;;;;;;;47.80;30.00;;;;;;;-0.65;53.77;98164.89;110230;1244;69207;-67
2022/03/16 01:46:07;;;;;;;42.60;27.70;;;;;;;-0.70;55.87;98168.56;110114;1247;59674;-64
2022/03/16 01:48:39;;;;;;;36.40;22.70;;;;;;;-0.72;55.81;98171.17;110029;1247;59688;-66
2022/03/16 01:51:11;;;;;;;47.70;26.90;;;;;;;-0.77;56.41;98169.18;110062;1246;71540;-66
2022/03/16 01:53:41;;;;;;;49.40;29.10;;;;;;;-0.79;55.94;98159.64;110204;1244;68967;-65
2022/03/16 01:56:14;;;;;;;40.30;27.70;;;;;;;-0.80;53.99;98151.60;110181;1244;69254;-68
2022/03/16 01:58:44;;;;;;;42.80;27.40;;;;;;;-0.82;55.85;98155.07;109993;1247;59737;-65
2022/03/16 02:01:17;;;;;;;47.00;30.10;;;;;;;-0.86;55.63;98149.81;110159;1244;59635;-65
2022/03/16 02:03:49;;;;;;;59.80;35.50;;;;;;;-0.91;55.66;98142.20;110085;1248;70541;-65
2022/03/16 02:06:20;;;;;;;72.60;45.30;;;;;;;-0.97;55.45;98146.23;110158;1247;67780;-64
2022/03/16 02:08:51;;;;;;;66.60;38.30;;;;;;;-1.12;56.57;98147.13;110038;1247;69451;-63
2022/03/16 02:11:23;;;;;;;57.70;35.20;;;;;;;-1.23;60.36;98138.05;110093;1247;59693;-61
2022/03/16 02:13:53;;;;;;;64.60;38.00;;;;;;;-1.27;57.24;98117.41;110137;1247;59700;-61
2022/03/16 02:16:23;;;;;;;68.20;40.40;;;;;;;-1.31;55.71;98098.83;110111;1247;71620;-62
2022/03/16 02:18:54;;;;;;;45.60;28.80;;;;;;;-1.38;56.13;98091.40;110082;1248;67633;-62
2022/03/16 02:21:26;;;;;;;52.20;30.50;;;;;;;-1.47;57.41;98102.83;110113;1246;69387;-62
2022/03/16 02:23:57;;;;;;;37.90;21.20;;;;;;;-1.53;57.86;98110.41;110104;1247;59708;-61
2022/03/16 02:26:27;;;;;;;;;;;;;;;-1.55;57.16;98103.95;110161;1247;59685;-64
2022/03/16 02:28:57;;;;;;;53.30;32.40;;;;;;;-1.59;55.05;98082.62;110146;1247;71518;-67
2022/03/16 02:31:29;;;;;;;48.80;29.00;;;;;;;-1.58;56.27;98073.05;109940;1250;68532;-67
2022/03/16 02:34:01;;;;;;;60.80;36.00;;;;;;;-1.62;56.87;98075.84;110088;1247;69429;-64
2022/03/16 02:36:32;;;;;;;59.90;33.20;;;;;;;-1.65;59.32;98064.09;110204;1247;59745;-62
2022/03/16 02:39:04;;;;;;;54.40;32.00;;;;;;;-1.68;60.16;98070.80;110089;1248;59713;-64
2022/03/16 02:41:36;;;;;;;56.60;29.50;;;;;;;-1.68;59.84;98074.03;110056;1248;69938;-64
2022/03/16 02:44:06;;;;;;;32.60;19.00;;;;;;;-1.66;60.37;98066.85;109895;1249;67635;-61
2022/03/16 02:46:36;;;;;;;;;;;;;;;-1.64;59.60;98066.13;110068;1248;69385;-65
2022/03/16 02:49:06;;;;;;;39.80;22.40;;;;;;;-1.62;58.93;98072.77;110159;1247;59744;-63
2022/03/16 02:51:36;;;;;;;;;;;;;;;-1.61;57.39;98061.65;110085;1247;59734;-62
2022/03/16 02:54:06;;;;;;;45.30;26.90;;;;;;;-1.58;56.67;98053.56;110094;1247;71521;-62
2022/03/16 02:56:36;;;;;;;;;;;;;;;-1.54;57.47;98058.45;109303;1247;954591;-60
2022/03/16 02:59:06;;;;;;;41.20;24.90;;;;;;;-1.50;57.78;98059.60;110009;1250;68405;-66
2022/03/16 03:01:36;;;;;;;35.90;22.20;;;;;;;-1.48;57.09;98039.74;110083;1247;59760;-65
2022/03/16 03:04:08;;;;;;;34.80;19.90;;;;;;;-1.44;55.43;98030.29;110073;1247;59694;-65
2022/03/16 03:06:38;;;;;;;39.50;24.00;;;;;;;-1.37;55.40;98024.35;109977;1247;71656;-67
2022/03/16 03:09:09;;;;;;;48.60;29.00;;;;;;;-1.34;58.62;98033.20;109818;1250;68047;-63
2022/03/16 03:11:40;;;;;;;55.90;32.60;;;;;;;-1.41;57.79;98028.02;110093;1247;69515;-66
2022/03/16 03:14:11;;;;;;;38.20;23.70;;;;;;;-1.49;56.60;98016.67;110111;1247;60057;-66
2022/03/16 03:16:42;;;;;;;44.30;29.50;;;;;;;-1.55;59.55;98017.80;110143;1247;59735;-65
2022/03/16 03:19:13;;;;;;;38.90;24.20;;;;;;;-1.58;60.93;98015.45;110028;1248;70740;-65
2022/03/16 03:21:44;;;;;;;39.00;26.50;;;;;;;-1.62;60.51;98012.60;110047;1247;68541;-64
2022/03/16 03:24:14;;;;;;;38.60;23.90;;;;;;;-1.65;61.46;98002.05;109893;1247;69672;-66
2022/03/16 03:26:45;;;;;;;40.80;22.90;;;;;;;-1.67;60.72;98005.14;110101;1247;59738;-67
2022/03/16 03:29:15;;;;;;;;;;;;;;;-1.68;60.51;98003.45;110150;1247;59627;-62
2022/03/16 03:31:45;;;;;;;39.60;25.50;;;;;;;-1.69;59.28;97998.86;110064;1247;71323;-64
2022/03/16 03:34:15;;;;;;;43.50;26.60;;;;;;;-1.69;58.48;97998.86;109839;1248;67737;-61
2022/03/16 03:36:45;;;;;;;;;;;;;;;-1.66;58.37;98004.80;110060;1247;70075;-61
2022/03/16 03:39:17;;;;;;;44.10;25.00;;;;;;;-1.64;58.32;97995.02;109889;1248;59756;-65
2022/03/16 03:41:47;;;;;;;45.50;25.90;;;;;;;-1.62;57.09;97983.02;110206;1247;60116;-62
2022/03/16 03:44:17;;;;;;;43.40;26.40;;;;;;;-1.60;58.21;97987.77;110064;1247;70626;-65
2022/03/16 03:46:47;;;;;;;41.30;26.60;;;;;;;-1.59;59.18;97985.20;110077;1248;68532;-66
2022/03/16 03:49:18;;;;;;;31.90;22.70;;;;;;;-1.62;60.21;97985.42;110147;1247;69461;-64
2022/03/16 03:51:48;;;;;;;46.00;26.30;;;;;;;-1.65;59.18;97991.95;110180;1247;59742;-67
2022/03/16 03:54:18;;;;;;;43.50;26.10;;;;;;;-1.69;61.16;97986.20;110067;1247;59700;-65
2022/03/16 03:56:49;;;;;;;34.40;22.40;;;;;;;-1.72;59.84;97972.23;110062;1247;71482;-62
2022/03/16 03:59:19;;;;;;;29.40;19.10;;;;;;;-1.73;58.34;97971.91;110101;1247;67661;-60
2022/03/16 04:01:51;;;;;;;42.30;25.30;;;;;;;-1.72;58.91;97978.90;110018;1247;68507;-62
2022/03/16 04:04:21;;;;;;;44.10;27.60;;;;;;;-1.70;59.95;97980.25;110093;1247;59747;-62
2022/03/16 04:06:54;;;;;;;34.50;19.80;;;;;;;-1.72;58.50;97979.59;110124;1247;59754;-60
2022/03/16 04:09:24;;;;;;;32.60;19.80;;;;;;;-1.72;56.76;97978.04;110153;1246;70599;-61
2022/03/16 04:11:54;;;;;;;34.30;21.90;;;;;;;-1.71;58.64;97967.44;110219;1247;67060;-61
2022/03/16 04:14:25;;;;;;;;;;;;;;;-1.70;56.93;97966.92;110437;1244;68734;-61
2022/03/16 04:16:55;;;;;;;34.20;21.40;;;;;;;-1.71;60.29;97979.06;110181;1247;59728;-65
2022/03/16 04:19:25;;;;;;;43.60;26.50;;;;;;;-1.73;58.17;97969.86;110452;1244;59678;-66
2022/03/16 04:21:55;;;;;;;38.50;23.50;;;;;;;-1.73;56.73;97961.84;110452;1244;71486;-66
2022/03/16 04:24:24;;;;;;;41.50;24.90;;;;;;;-1.70;56.53;97955.12;110181;1247;68862;-65
2022/03/16 04:26:55;;;;;;;47.80;28.20;;;;;;;-1.68;57.51;97956.45;110075;1247;69530;-63
2022/03/16 04:29:24;;;;;;;34.50;21.90;;;;;;;-1.69;60.42;97961.94;110326;1245;59700;-63
2022/03/16 04:31:54;;;;;;;34.90;23.90;;;;;;;-1.72;60.75;97965.90;110427;1244;59682;-67
2022/03/16 04:34:24;;;;;;;35.20;21.20;;;;;;;-1.73;60.58;97971.91;110386;1244;70722;-65
2022/03/16 04:36:55;;;;;;;22.80;15.00;;;;;;;-1.73;60.13;97966.63;110259;1247;67852;-63
2022/03/16 04:39:25;;;;;;;33.50;20.80;;;;;;;-1.74;59.48;97965.09;110346;1247;69398;-60
2022/03/16 04:41:54;;;;;;;34.00;22.10;;;;;;;-1.73;60.42;97962.34;110374;1247;59731;-61
2022/03/16 04:44:24;;;;;;;37.40;22.50;;;;;;;-1.69;58.77;97952.88;110060;1247;59727;-61
2022/03/16 04:46:55;;;;;;;40.00;25.10;;;;;;;-1.66;57.13;97953.52;109877;1247;71337;-61
2022/03/16 04:49:24;;;;;;;58.10;32.90;;;;;;;-1.70;60.90;97961.27;110118;1247;68973;-64
2022/03/16 04:51:55;;;;;;;42.60;24.70;;;;;;;-1.85;60.63;97962.00;110178;1245;69454;-62
2022/03/16 04:54:24;;;;;;;54.30;32.60;;;;;;;-1.98;61.31;97958.94;110101;1248;59745;-63
2022/03/16 04:56:55;;;;;;;44.10;25.10;;;;;;;-2.07;59.94;97960.42;110348;1245;59683;-65
2022/03/16 04:59:25;;;;;;;;;;;;;;;-2.12;59.12;97953.85;110153;1247;70637;-64
2022/03/16 05:01:54;;;;;;;38.60;25.60;;;;;;;-2.13;61.86;97954.36;110389;1245;68589;-66
2022/03/16 05:04:24;;;;;;;46.90;27.90;;;;;;;-2.12;63.33;97956.25;110067;1247;69270;-66
2022/03/16 05:06:54;;;;;;;34.40;21.80;;;;;;;-2.10;63.53;97957.56;110131;1247;59669;-64
2022/03/16 05:09:23;;;;;;;31.50;19.80;;;;;;;-2.08;60.92;97957.37;110277;1244;59666;-66
2022/03/16 05:11:53;;;;;;;48.40;27.20;;;;;;;-2.05;62.05;97960.91;110398;1245;71760;-65
2022/03/16 05:14:23;;;;;;;39.20;24.90;;;;;;;-2.02;59.60;97959.02;110417;1245;68443;-62
2022/03/16 05:16:54;;;;;;;51.50;30.50;;;;;;;-2.00;59.22;97959.14;110008;1247;68500;-63
2022/03/16 05:19:25;;;;;;;42.60;28.00;;;;;;;-1.98;59.41;97953.48;110068;1247;59750;-62
2022/03/16 05:21:55;;;;;;;37.20;22.30;;;;;;;-1.95;59.61;97948.31;110302;1244;59713;-64
2022/03/16 05:24:26;;;;;;;43.50;26.90;;;;;;;-1.91;57.62;97947.40;109952;1245;71860;-64
2022/03/16 05:26:56;;;;;;;49.10;28.30;;;;;;;-1.89;57.47;97948.55;110011;1246;67836;-63
2022/03/16 05:29:26;;;;;;;50.30;28.80;;;;;;;-1.86;58.03;97953.13;109958;1247;69377;-63
2022/03/16 05:31:55;;;;;;;51.60;31.10;;;;;;;-1.84;59.49;97963.55;110125;1247;59744;-65
2022/03/16 05:34:25;;;;;;;50.20;30.80;;;;;;;-1.82;59.84;97960.09;110286;1247;59666;-65
2022/03/16 05:36:55;;;;;;;64.40;37.60;;;;;;;-1.79;58.35;97960.73;110058;1245;71620;-61
2022/03/16 05:39:25;;;;;;;;;;;;;;;-1.77;58.89;97953.50;110088;1247;67888;-66
2022/03/16 05:41:55;;;;;;;61.70;35.20;;;;;;;-1.77;60.53;97949.75;110242;1244;69381;-64
2022/03/16 05:44:24;;;;;;;37.80;22.60;;;;;;;-1.74;60.70;97953.65;110275;1247;59694;-63
2022/03/16 05:46:57;;;;;;;58.90;33.10;;;;;;;-1.70;61.29;97957.52;110133;1247;59805;-62
2022/03/16 05:49:28;;;;;;;53.00;31.10;;;;;;;-1.66;61.83;97951.30;110252;1247;71628;-61
2022/03/16 05:52:00;;;;;;;51.60;29.70;;;;;;;-1.62;61.67;97951.58;110042;1248;68677;-65
2022/03/16 05:54:29;;;;;;;48.10;27.50;;;;;;;-1.57;62.11;97952.88;110148;1247;69211;-65
2022/03/16 05:56:59;;;;;;;49.70;30.40;;;;;;;-1.53;61.66;97956.22;110242;1245;59755;-64
2022/03/16 05:59:34;;;;;;;58.40;33.80;;;;;;;-1.53;61.13;97955.54;110105;1247;59676;-67
2022/03/16 06:02:04;;;;;;;64.10;38.00;;;;;;;-1.62;62.79;97956.02;110218;1247;70815;-66
2022/03/16 06:04:34;;;;;;;60.30;36.50;;;;;;;-1.70;62.92;97960.40;110110;1247;67626;-66
2022/03/16 06:07:04;;;;;;;53.70;37.50;;;;;;;-1.77;61.41;97960.70;110228;1247;69419;-65
2022/03/16 06:09:34;;;;;;;79.70;46.60;;;;;;;-1.89;62.16;97963.95;110117;1247;59746;-64
2022/03/16 06:12:09;;;;;;;75.50;44.20;;;;;;;-2.01;63.31;97969.57;110131;1247;59639;-64
2022/03/16 06:14:38;;;;;;;75.70;44.60;;;;;;;-2.05;63.07;97970.30;110143;1247;70715;-64
2022/03/16 06:17:08;;;;;;;71.80;41.90;;;;;;;-2.03;61.71;97965.50;110138;1247;67830;-64
2022/03/16 06:19:38;;;;;;;72.30;42.90;;;;;;;-2.02;62.34;97957.13;110125;1247;67655;-63
2022/03/16 06:22:07;;;;;;;63.20;41.10;;;;;;;-1.98;62.61;97955.70;110038;1248;59744;-62
2022/03/16 06:24:37;;;;;;;60.40;38.00;;;;;;;-1.91;64.00;97958.00;109983;1247;59665;-61
2022/03/16 06:27:06;;;;;;;59.10;37.70;;;;;;;-1.84;63.23;97956.70;110058;1248;71654;-62
2022/03/16 06:29:36;;;;;;;64.20;37.90;;;;;;;-1.75;63.31;97954.17;110192;1247;68010;-61
2022/03/16 06:32:05;;;;;;;47.10;28.70;;;;;;;-1.67;62.46;97950.12;110088;1248;69508;-64
2022/03/16 06:34:35;;;;;;;52.80;31.50;;;;;;;-1.58;60.46;97947.57;110053;1248;59725;-67
2022/03/16 06:37:05;;;;;;;69.20;37.90;;;;;;;-1.47;59.77;97941.93;110107;1247;59687;-68
2022/03/16 06:39:34;;;;;;;46.90;30.90;;;;;;;-1.36;59.70;97931.31;110158;1247;70532;-66
2022/03/16 06:42:04;;;;;;;51.40;31.00;;;;;;;-1.27;59.96;97928.42;110007;1247;67926;-64
2022/03/16 06:44:34;;;;;;;58.80;36.70;;;;;;;-1.21;60.51;97932.27;110163;1247;69785;-64
2022/03/16 06:47:03;;;;;;;;;;;;;;;-1.13;61.24;97940.84;109966;1247;60151;-64
2022/03/16 06:49:33;;;;;;;48.90;27.20;;;;;;;-1.03;61.68;97943.74;110058;1247;60012;-65
2022/03/16 06:52:03;;;;;;;52.30;30.10;;;;;;;-0.93;60.53;97935.87;110174;1246;70609;-65
2022/03/16 06:54:38;;;;;;;47.50;27.50;;;;;;;-0.84;59.64;97935.19;110191;1247;68027;-63
2022/03/16 06:57:07;;;;;;;58.30;35.30;;;;;;;-0.78;58.53;97935.58;110171;1246;68752;-67
2022/03/16 06:59:57;;;;;;;59.10;37.70;;;;;;;-0.72;58.43;97926.22;110094;1247;59693;-66
2022/03/16 07:02:26;;;;;;;64.20;38.80;;;;;;;-0.68;59.71;97925.96;110017;1248;59647;-65
2022/03/16 07:04:55;;;;;;;54.90;35.90;;;;;;;-0.61;60.72;97927.71;110156;1247;71725;-67
2022/03/16 07:07:26;;;;;;;45.70;29.00;;;;;;;-0.55;60.16;97925.02;110148;1247;67787;-66
2022/03/16 07:09:56;;;;;;;46.60;27.40;;;;;;;-0.46;60.11;97933.58;110267;1247;69414;-61
2022/03/16 07:12:29;;;;;;;50.00;32.60;;;;;;;-0.37;60.32;97934.60;110355;1247;59770;-65
2022/03/16 07:15:00;;;;;;;58.20;34.50;;;;;;;-0.31;60.04;97936.84;110395;1245;59667;-67
2022/03/16 07:17:30;;;;;;;51.50;31.10;;;;;;;-0.24;58.85;97941.85;110052;1247;71619;-66
2022/03/16 07:19:59;;;;;;;47.20;29.20;;;;;;;-0.19;58.75;97935.40;110159;1247;67963;-64
2022/03/16 07:22:29;;;;;;;53.90;32.60;;;;;;;-0.14;58.87;97930.68;110096;1247;69418;-68
2022/03/16 07:25:18;;;;;;;61.00;39.90;;;;;;;-0.11;59.19;97928.53;110299;1247;59742;-66
2022/03/16 07:27:49;;;;;;;79.10;47.30;;;;;;;-0.09;59.31;97922.17;110295;1245;59694;-65
2022/03/16 07:30:19;;;;;;;82.90;48.70;;;;;;;-0.10;59.45;97921.31;110332;1247;71630;-64
2022/03/16 07:32:48;;;;;;;77.00;49.00;;;;;;;-0.19;60.50;97913.64;110353;1247;68622;-66
2022/03/16 07:35:18;;;;;;;74.50;43.20;;;;;;;-0.23;61.30;97907.22;110315;1247;69469;-67
2022/03/16 07:37:47;;;;;;;64.20;39.80;;;;;;;-0.24;61.95;97905.52;109864;1250;59805;-67
2022/03/16 07:40:16;;;;;;;58.80;36.80;;;;;;;-0.19;61.10;97911.58;110424;1247;59612;-68
2022/03/16 07:42:47;;;;;;;79.00;46.70;;;;;;;-0.13;60.98;97909.92;110338;1247;70563;-64
2022/03/16 07:45:18;;;;;;;74.70;44.80;;;;;;;-0.10;61.09;97907.80;110417;1247;67935;-63
2022/03/16 07:47:50;;;;;;;80.40;43.00;;;;;;;-0.05;61.04;97909.56;110086;1247;68728;-61
2022/03/16 07:50:20;;;;;;;70.90;43.10;;;;;;;0.01;61.18;97911.48;110159;1247;59703;-63
2022/03/16 07:52:49;;;;;;;61.70;38.30;;;;;;;0.07;61.03;97912.20;110114;1246;59761;-62
2022/03/16 07:55:18;;;;;;;59.10;36.30;;;;;;;0.17;60.83;97909.08;110261;1244;71393;-65
2022/03/16 07:57:48;;;;;;;49.80;33.80;;;;;;;0.29;60.95;97910.68;110075;1247;68587;-64
2022/03/16 08:00:18;;;;;;;50.10;29.80;;;;;;;0.42;60.75;97908.14;110302;1247;69429;-65
2022/03/16 08:02:47;;;;;;;42.60;26.80;;;;;;;0.54;60.20;97909.38;110240;1247;59683;-65
2022/03/16 08:05:17;;;;;;;36.60;23.80;;;;;;;0.67;59.59;97907.52;110179;1247;59679;-65
2022/03/16 08:07:46;;;;;;;45.70;30.60;;;;;;;0.76;59.33;97911.73;110103;1247;71741;-62
2022/03/16 08:10:15;;;;;;;78.60;49.60;;;;;;;0.79;59.75;97913.71;110169;1247;69228;-62
2022/03/16 08:12:44;;;;;;;94.00;58.50;;;;;;;0.82;59.42;97918.96;109823;1247;68765;-61
2022/03/16 08:15:15;;;;;;;83.20;51.90;;;;;;;0.71;59.44;97924.21;110091;1247;59760;-61
2022/03/16 08:17:44;;;;;;;85.50;50.40;;;;;;;0.62;59.05;97920.66;110132;1247;59688;-60
2022/03/16 08:20:13;;;;;;;79.40;48.10;;;;;;;0.56;58.62;97917.05;110033;1247;71925;-64
2022/03/16 08:22:43;;;;;;;86.80;51.80;;;;;;;0.57;58.50;97910.50;110091;1248;67928;-62
2022/03/16 08:25:12;;;;;;;74.00;44.10;;;;;;;0.62;58.19;97907.47;110127;1247;68666;-65
2022/03/16 08:27:42;;;;;;;78.60;49.10;;;;;;;0.67;57.91;97908.20;110087;1247;59753;-67
2022/03/16 08:30:11;;;;;;;85.70;53.40;;;;;;;0.72;57.75;97910.62;110422;1247;59662;-64
2022/03/16 08:32:41;;;;;;;73.90;46.60;;;;;;;0.76;57.34;97910.52;110175;1247;71439;-67
2022/03/16 08:35:11;;;;;;;86.70;49.90;;;;;;;0.82;57.42;97909.02;110365;1247;68583;-65
2022/03/16 08:37:40;;;;;;;76.50;47.20;;;;;;;0.88;57.53;97906.96;110189;1247;69530;-67
2022/03/16 08:40:10;;;;;;;79.60;47.10;;;;;;;0.93;56.84;97900.99;110139;1247;59713;-67
2022/03/16 08:42:39;;;;;;;70.80;43.40;;;;;;;1.01;56.98;97900.09;110171;1247;59666;-62
2022/03/16 08:45:10;;;;;;;78.30;45.40;;;;;;;1.13;56.96;97897.55;110212;1247;71557;-62
2022/03/16 08:47:39;;;;;;;64.90;41.40;;;;;;;1.25;56.71;97895.14;110386;1247;67986;-64
2022/03/16 08:50:09;;;;;;;63.80;38.00;;;;;;;1.37;56.52;97894.30;110377;1245;68633;-60
2022/03/16 08:52:38;;;;;;;72.20;44.90;;;;;;;1.49;56.22;97897.74;110467;1247;59660;-62
2022/03/16 08:55:08;;;;;;;84.10;49.90;;;;;;;1.56;55.94;97901.84;110370;1246;59671;-64
2022/03/16 08:57:38;;;;;;;;;;;;;;;1.60;55.84;97900.70;110114;1247;72014;-67
2022/03/16 09:00:08;;;;;;;82.00;50.00;;;;;;;1.65;55.85;97900.54;110417;1247;68626;-65
2022/03/16 09:02:37;;;;;;;78.20;44.90;;;;;;;1.75;55.23;97895.77;110149;1247;67863;-66
2022/03/16 09:05:08;;;;;;;74.10;45.50;;;;;;;1.84;54.94;97892.40;110452;1247;59671;-65
2022/03/16 09:07:38;;;;;;;;;;;;;;;1.94;54.13;97884.69;110065;1247;59762;-65
2022/03/16 09:10:08;;;;;;;54.40;34.60;;;;;;;2.05;53.85;97886.08;110158;1247;71523;-67
2022/03/16 09:12:39;;;;;;;52.60;34.10;;;;;;;2.17;53.86;97887.45;110081;1247;68190;-66
2022/03/16 09:15:09;;;;;;;58.60;39.00;;;;;;;2.28;52.60;97887.10;110221;1247;68753;-66
2022/03/16 09:17:38;;;;;;;67.90;40.50;;;;;;;2.38;52.35;97886.27;110033;1247;59719;-65
2022/03/16 09:20:08;;;;;;;63.70;41.00;;;;;;;2.46;51.09;97885.13;110095;1247;59750;-64
2022/03/16 09:22:37;;;;;;;50.40;34.90;;;;;;;2.53;50.91;97879.71;110073;1247;71630;-62
2022/03/16 09:25:08;;;;;;;54.30;33.40;;;;;;;2.63;49.59;97882.83;110104;1248;68118;-61
2022/03/16 09:27:37;;;;;;;;;;;;;;;2.72;48.86;97883.75;110092;1247;68793;-63
2022/03/16 09:30:07;;;;;;;59.60;34.80;;;;;;;2.80;48.93;97882.44;110188;1247;59758;-65
2022/03/16 09:32:39;;;;;;;58.50;36.40;;;;;;;2.87;49.76;97888.23;110018;1247;59753;-65
2022/03/16 09:35:09;;;;;;;52.90;35.30;;;;;;;2.90;48.51;97881.76;110206;1247;71618;-67
2022/03/16 09:37:38;;;;;;;45.90;29.60;;;;;;;2.93;47.88;97872.02;110105;1247;67749;-66
2022/03/16 09:40:08;;;;;;;46.00;31.50;;;;;;;3.01;48.93;97871.38;110139;1247;68671;-67
2022/03/16 09:42:38;;;;;;;47.30;32.60;;;;;;;3.10;49.27;97866.95;110167;1247;59757;-68
2022/03/16 09:45:08;;;;;;;;;;;;;;;3.18;49.14;97865.27;110093;1248;59747;-62
2022/03/16 09:47:37;;;;;;;51.50;33.30;;;;;;;3.24;48.47;97862.48;110128;1247;70809;-62
2022/03/16 09:50:09;;;;;;;48.30;33.30;;;;;;;3.25;47.64;97862.95;110165;1247;68609;-62
2022/03/16 09:52:39;;;;;;;50.90;34.60;;;;;;;3.30;48.06;97858.65;110124;1248;68271;-61
2022/03/16 09:55:09;;;;;;;51.90;34.80;;;;;;;3.31;47.95;97857.88;110100;1247;59702;-60
2022/03/16 09:57:38;;;;;;;61.50;40.80;;;;;;;3.38;48.34;97859.91;110092;1247;59683;-62
2022/03/16 10:00:12;;;;;;;61.50;39.60;;;;;;;3.44;48.00;97859.99;110113;1246;72252;-61
2022/03/16 10:02:41;;;;;;;59.20;36.90;;;;;;;3.48;47.57;97864.55;110121;1247;68722;-64
2022/03/16 10:05:10;;;;;;;55.50;35.10;;;;;;;3.51;47.24;97857.00;110135;1247;69499;-64
2022/03/16 10:07:39;;;;;;;52.90;32.50;;;;;;;3.55;46.92;97854.61;110063;1247;59687;-62
2022/03/16 10:13:16;;;;;;;49.90;33.30;;;;;;;3.68;46.59;97851.02;110198;1247;71592;-64
2022/03/16 10:15:45;;;;;;;47.70;31.90;;;;;;;3.67;45.50;97848.11;110226;1247;67947;-61
2022/03/16 10:18:20;;;;;;;39.50;28.20;;;;;;;3.72;46.08;97850.17;110384;1246;68924;-65
2022/03/16 10:20:52;;;;;;;52.60;33.20;;;;;;;3.77;47.42;97853.07;110296;1247;59735;-65
2022/03/16 10:23:25;;;;;;;42.00;27.50;;;;;;;3.82;45.48;97855.12;110385;1246;59738;-66
2022/03/16 10:25:55;;;;;;;44.70;26.60;;;;;;;3.90;45.86;97854.64;110313;1246;70832;-66
2022/03/16 10:28:32;;;;;;;60.90;33.80;;;;;;;3.95;45.02;97857.54;110381;1245;68577;-64
2022/03/16 10:31:05;;;;;;;44.80;30.90;;;;;;;4.01;45.41;97858.39;110381;1245;69002;-65
2022/03/16 10:33:46;;;;;;;39.60;27.10;;;;;;;4.06;45.01;97858.14;110445;1246;59665;-65
2022/03/16 10:36:20;;;;;;;47.80;31.10;;;;;;;4.11;44.73;97857.96;110381;1246;59614;-66
2022/03/16 10:38:53;;;;;;;53.60;34.00;;;;;;;4.15;44.74;97857.13;110362;1246;71530;-65
2022/03/16 10:47:18;;;;;;;40.80;25.90;;;;;;;4.22;42.95;97844.75;110405;1246;59738;-63
2022/03/16 10:50:04;;;;;;;36.50;25.40;;;;;;;4.24;43.15;97849.34;110138;1245;59731;-62
2022/03/16 10:52:34;;;;;;;40.10;26.20;;;;;;;4.19;42.95;97845.55;110129;1247;71501;-62
2022/03/16 10:55:05;;;;;;;;;;;;;;;4.18;42.98;97843.05;110082;1247;67835;-64
2022/03/16 10:57:34;;;;;;;38.40;22.20;;;;;;;4.20;43.05;97847.09;110388;1247;69474;-65
2022/03/16 11:00:04;;;;;;;30.90;21.50;;;;;;;4.24;42.79;97845.89;110400;1247;59738;-67
2022/03/16 11:02:34;;;;;;;37.30;23.80;;;;;;;4.25;42.57;97843.60;110429;1246;60052;-62
2022/03/16 11:05:04;;;;;;;35.90;23.50;;;;;;;4.29;42.98;97843.42;110412;1246;71533;-63
2022/03/16 11:07:36;;;;;;;38.60;25.20;;;;;;;4.37;43.16;97849.16;110373;1247;69229;-65
2022/03/16 11:10:08;;;;;;;37.10;23.50;;;;;;;4.38;42.76;97849.45;110378;1245;68562;-65
2022/03/16 11:15:28;;;;;;;35.80;23.10;;;;;;;4.39;43.05;97855.46;110414;1246;59682;-67
2022/03/16 11:17:57;;;;;;;36.50;24.10;;;;;;;4.41;43.13;97856.23;110363;1247;72217;-63
2022/03/16 11:20:30;;;;;;;34.20;23.10;;;;;;;4.37;43.55;97856.05;110190;1247;68702;-64
2022/03/16 11:26:23;;;;;;;36.20;24.20;;;;;;;4.30;44.79;97857.90;110259;1247;59730;-61
2022/03/16 11:29:13;;;;;;;34.40;24.60;;;;;;;4.29;44.73;97860.87;110389;1245;59739;-61
2022/03/16 11:31:42;;;;;;;32.60;22.90;;;;;;;4.28;45.97;97861.59;110123;1246;71729;-65
2022/03/16 11:34:21;;;;;;;34.00;23.00;;;;;;;4.31;46.14;97865.97;110469;1246;68648;-65
2022/03/16 11:37:09;;;;;;;39.00;24.70;;;;;;;4.39;46.03;97864.41;110401;1246;69552;-64
2022/03/16 11:39:45;;;;;;;37.90;23.60;;;;;;;4.39;46.25;97865.11;110086;1247;59721;-66
2022/03/16 11:42:18;;;;;;;31.10;20.80;;;;;;;4.38;47.60;97864.63;110318;1246;59754;-65
2022/03/16 11:44:48;;;;;;;29.70;19.10;;;;;;;4.38;47.84;97864.80;110352;1245;69959;-65
2022/03/16 11:47:24;;;;;;;32.50;23.40;;;;;;;4.36;48.80;97864.73;110332;1245;69001;-65
2022/03/16 11:50:11;;;;;;;34.40;22.00;;;;;;;4.39;49.10;97864.96;110086;1247;68047;-61